sensor_id;sensor_type;location;lat;lon;timestamp;pressure;altitude;pressure_sealevel;temperature;humidity
17781;BME280;8498;52.516;13.790;2023-06-22T00:04:50;101353.34;;;20.09;100.00
17781;BME280;8498;52.516;13.790;2023-06-22T00:10:12;101345.59;;;19.96;100.00
17781;BME280;8498;52.516;13.790;2023-06-22T00:15:36;101367.16;;;19.96;100.00
17781;BME280;8498;52.516;13.790;2023-06-22T00:20:59;101366.63;;;19.93;100.00
17781;BME280;8498;52.516;13.790;2023-06-22T00:26:21;101364.50;;;19.87;100.00
17781;BME280;8498;52.516;13.790;2023-06-22T00:31:44;101373.59;;;19.86;100.00
17781;BME280;8498;52.516;13.790;2023-06-22T00:37:07;101388.56;;;19.70;100.00
17781;BME280;8498;52.516;13.790;2023-06-22T00:42:29;101394.25;;;19.67;100.00
17781;BME280;8498;52.516;13.790;2023-06-22T00:47:53;101399.91;;;19.64;100.00
17781;BME280;8498;52.516;13.790;2023-06-22T00:53:15;101404.59;;;19.62;100.00
17781;BME280;8498;52.516;13.790;2023-06-22T00:58:40;101402.34;;;19.58;100.00
17781;BME280;8498;52.516;13.790;2023-06-22T01:04:04;101392.31;;;19.50;100.00
17781;BME280;8498;52.516;13.790;2023-06-22T01:09:35;101398.94;;;19.46;100.00
17781;BME280;8498;52.516;13.790;2023-06-22T01:15:05;101397.50;;;19.42;100.00
17781;BME280;8498;52.516;13.790;2023-06-22T01:20:30;101407.88;;;19.37;100.00
17781;BME280;8498;52.516;13.790;2023-06-22T01:31:26;101409.75;;;19.27;100.00
17781;BME280;8498;52.516;13.790;2023-06-22T01:36:50;101409.88;;;19.16;100.00
17781;BME280;8498;52.516;13.790;2023-06-22T01:42:13;101403.78;;;19.14;100.00
17781;BME280;8498;52.516;13.790;2023-06-22T01:47:35;101414.81;;;19.11;100.00
17781;BME280;8498;52.516;13.790;2023-06-22T01:52:58;101427.59;;;19.09;100.00
17781;BME280;8498;52.516;13.790;2023-06-22T01:58:23;101431.56;;;19.04;100.00
17781;BME280;8498;52.516;13.790;2023-06-22T02:03:55;101435.38;;;19.02;100.00
17781;BME280;8498;52.516;13.790;2023-06-22T02:09:20;101432.41;;;18.95;100.00
17781;BME280;8498;52.516;13.790;2023-06-22T02:14:45;101427.59;;;18.89;100.00
17781;BME280;8498;52.516;13.790;2023-06-22T02:20:12;101439.19;;;18.80;100.00
17781;BME280;8498;52.516;13.790;2023-06-22T02:25:36;101436.94;;;18.85;100.00
17781;BME280;8498;52.516;13.790;2023-06-22T02:30:59;101438.31;;;18.80;100.00
17781;BME280;8498;52.516;13.790;2023-06-22T02:36:22;101438.06;;;18.83;100.00
17781;BME280;8498;52.516;13.790;2023-06-22T02:41:44;101440.16;;;18.79;100.00
17781;BME280;8498;52.516;13.790;2023-06-22T02:47:07;101458.03;;;18.80;100.00
17781;BME280;8498;52.516;13.790;2023-06-22T02:52:29;101469.25;;;18.85;100.00
17781;BME280;8498;52.516;13.790;2023-06-22T02:57:52;101453.66;;;18.89;100.00
17781;BME280;8498;52.516;13.790;2023-06-22T03:03:15;101451.84;;;18.99;100.00
17781;BME280;8498;52.516;13.790;2023-06-22T03:08:38;101457.38;;;19.07;100.00
17781;BME280;8498;52.516;13.790;2023-06-22T03:14:01;101459.22;;;19.16;100.00
17781;BME280;8498;52.516;13.790;2023-06-22T03:19:23;101449.56;;;19.23;100.00
17781;BME280;8498;52.516;13.790;2023-06-22T03:24:46;101448.03;;;19.30;100.00
17781;BME280;8498;52.516;13.790;2023-06-22T03:30:10;101456.38;;;19.37;100.00
17781;BME280;8498;52.516;13.790;2023-06-22T03:35:33;101444.63;;;19.38;100.00
17781;BME280;8498;52.516;13.790;2023-06-22T03:40:56;101454.44;;;19.49;100.00
17781;BME280;8498;52.516;13.790;2023-06-22T03:46:18;101435.13;;;19.53;100.00
17781;BME280;8498;52.516;13.790;2023-06-22T03:51:42;101444.59;;;19.67;100.00
17781;BME280;8498;52.516;13.790;2023-06-22T03:57:04;101446.31;;;19.68;100.00
17781;BME280;8498;52.516;13.790;2023-06-22T04:02:28;101442.03;;;19.75;100.00
17781;BME280;8498;52.516;13.790;2023-06-22T04:07:50;101451.69;;;19.77;100.00
17781;BME280;8498;52.516;13.790;2023-06-22T04:13:13;101450.53;;;19.90;100.00
17781;BME280;8498;52.516;13.790;2023-06-22T04:18:35;101447.38;;;19.94;100.00
17781;BME280;8498;52.516;13.790;2023-06-22T04:23:58;101451.91;;;19.94;100.00
17781;BME280;8498;52.516;13.790;2023-06-22T04:29:21;101447.38;;;19.94;100.00
17781;BME280;8498;52.516;13.790;2023-06-22T04:34:50;101450.34;;;20.01;99.84
17781;BME280;8498;52.516;13.790;2023-06-22T04:40:14;101455.25;;;20.15;98.85
17781;BME280;8498;52.516;13.790;2023-06-22T04:45:37;101463.78;;;20.20;98.11
17781;BME280;8498;52.516;13.790;2023-06-22T04:51:01;101467.28;;;20.30;97.42
17781;BME280;8498;52.516;13.790;2023-06-22T04:56:26;101475.50;;;20.38;96.85
17781;BME280;8498;52.516;13.790;2023-06-22T05:01:50;101467.38;;;20.48;95.51
17781;BME280;8498;52.516;13.790;2023-06-22T05:07:13;101470.72;;;20.60;94.51
17781;BME280;8498;52.516;13.790;2023-06-22T05:12:36;101484.03;;;20.71;93.63
17781;BME280;8498;52.516;13.790;2023-06-22T05:17:59;101475.72;;;20.82;92.61
17781;BME280;8498;52.516;13.790;2023-06-22T05:23:22;101476.78;;;20.89;92.10
17781;BME280;8498;52.516;13.790;2023-06-22T05:28:44;101474.59;;;21.02;90.91
17781;BME280;8498;52.516;13.790;2023-06-22T05:34:09;101471.50;;;21.15;90.13
17781;BME280;8498;52.516;13.790;2023-06-22T05:39:32;101490.38;;;21.24;90.12
17781;BME280;8498;52.516;13.790;2023-06-22T05:44:54;101494.94;;;21.42;88.10
17781;BME280;8498;52.516;13.790;2023-06-22T05:50:17;101504.78;;;21.86;84.37
17781;BME280;8498;52.516;13.790;2023-06-22T05:55:40;101504.81;;;22.12;82.54
17781;BME280;8498;52.516;13.790;2023-06-22T06:01:03;101512.88;;;22.30;82.02
17781;BME280;8498;52.516;13.790;2023-06-22T06:06:25;101516.19;;;22.42;81.13
17781;BME280;8498;52.516;13.790;2023-06-22T06:11:50;101513.63;;;22.40;78.51
17781;BME280;8498;52.516;13.790;2023-06-22T06:17:13;101515.53;;;22.48;79.60
17781;BME280;8498;52.516;13.790;2023-06-22T06:22:35;101509.28;;;22.55;79.29
17781;BME280;8498;52.516;13.790;2023-06-22T06:27:58;101500.00;;;22.58;78.83
17781;BME280;8498;52.516;13.790;2023-06-22T06:33:20;101498.16;;;22.66;77.76
17781;BME280;8498;52.516;13.790;2023-06-22T06:38:46;101500.63;;;22.86;77.75
17781;BME280;8498;52.516;13.790;2023-06-22T06:44:11;101492.75;;;23.09;72.54
17781;BME280;8498;52.516;13.790;2023-06-22T06:49:33;101506.50;;;23.31;72.57
17781;BME280;8498;52.516;13.790;2023-06-22T06:54:56;101506.88;;;23.45;72.22
17781;BME280;8498;52.516;13.790;2023-06-22T07:00:18;101506.19;;;23.42;71.28
17781;BME280;8498;52.516;13.790;2023-06-22T07:05:41;101505.22;;;23.52;71.37
17781;BME280;8498;52.516;13.790;2023-06-22T07:11:05;101486.88;;;23.70;71.17
17781;BME280;8498;52.516;13.790;2023-06-22T07:16:28;101489.94;;;23.91;69.99
17781;BME280;8498;52.516;13.790;2023-06-22T07:21:51;101487.50;;;24.12;67.56
17781;BME280;8498;52.516;13.790;2023-06-22T07:27:13;101487.13;;;24.48;67.17
17781;BME280;8498;52.516;13.790;2023-06-22T07:32:39;101456.84;;;24.59;66.79
17781;BME280;8498;52.516;13.790;2023-06-22T07:38:01;101457.09;;;24.72;65.06
17781;BME280;8498;52.516;13.790;2023-06-22T07:43:27;101460.44;;;24.82;63.21
17781;BME280;8498;52.516;13.790;2023-06-22T07:48:52;101458.69;;;24.98;64.20
17781;BME280;8498;52.516;13.790;2023-06-22T07:54:17;101463.50;;;25.18;62.95
17781;BME280;8498;52.516;13.790;2023-06-22T07:59:40;101451.63;;;25.34;62.78
17781;BME280;8498;52.516;13.790;2023-06-22T08:05:03;101452.47;;;25.57;58.97
17781;BME280;8498;52.516;13.790;2023-06-22T08:10:41;101448.47;;;25.68;57.25
17781;BME280;8498;52.516;13.790;2023-06-22T08:16:04;101458.25;;;25.77;53.72
17781;BME280;8498;52.516;13.790;2023-06-22T08:21:27;101445.16;;;25.95;52.92
17781;BME280;8498;52.516;13.790;2023-06-22T08:26:51;101447.88;;;26.10;54.56
17781;BME280;8498;52.516;13.790;2023-06-22T08:32:14;101463.56;;;26.23;52.44
17781;BME280;8498;52.516;13.790;2023-06-22T08:37:37;101456.25;;;26.38;52.11
17781;BME280;8498;52.516;13.790;2023-06-22T08:43:01;101458.13;;;26.52;53.61
17781;BME280;8498;52.516;13.790;2023-06-22T08:48:23;101449.66;;;26.62;53.99
17781;BME280;8498;52.516;13.790;2023-06-22T08:53:46;101447.31;;;26.59;50.26
17781;BME280;8498;52.516;13.790;2023-06-22T08:59:08;101445.34;;;26.53;49.13
17781;BME280;8498;52.516;13.790;2023-06-22T09:04:30;101450.03;;;26.59;49.45
17781;BME280;8498;52.516;13.790;2023-06-22T09:09:57;101452.00;;;26.65;49.66
17781;BME280;8498;52.516;13.790;2023-06-22T09:15:19;101447.63;;;26.85;51.18
17781;BME280;8498;52.516;13.790;2023-06-22T09:20:42;101432.75;;;27.02;48.52
17781;BME280;8498;52.516;13.790;2023-06-22T09:26:04;101438.34;;;27.16;48.53
17781;BME280;8498;52.516;13.790;2023-06-22T09:31:28;101428.34;;;27.23;48.50
17781;BME280;8498;52.516;13.790;2023-06-22T09:36:50;101427.97;;;27.26;47.89
17781;BME280;8498;52.516;13.790;2023-06-22T09:42:13;101428.28;;;27.37;47.63
17781;BME280;8498;52.516;13.790;2023-06-22T09:47:36;101424.38;;;27.47;47.55
17781;BME280;8498;52.516;13.790;2023-06-22T09:52:58;101435.97;;;27.76;47.49
17781;BME280;8498;52.516;13.790;2023-06-22T09:58:21;101425.19;;;27.96;45.90
17781;BME280;8498;52.516;13.790;2023-06-22T10:03:44;101425.16;;;27.90;44.53
17781;BME280;8498;52.516;13.790;2023-06-22T10:09:07;101425.19;;;27.96;44.98
17781;BME280;8498;52.516;13.790;2023-06-22T10:14:30;101426.50;;;28.07;43.21
17781;BME280;8498;52.516;13.790;2023-06-22T10:19:53;101427.81;;;28.11;44.46
17781;BME280;8498;52.516;13.790;2023-06-22T10:25:15;101413.75;;;28.55;43.59
17781;BME280;8498;52.516;13.790;2023-06-22T10:30:39;101417.06;;;28.98;44.40
17781;BME280;8498;52.516;13.790;2023-06-22T10:36:03;101424.81;;;28.88;43.14
17781;BME280;8498;52.516;13.790;2023-06-22T10:41:26;101412.22;;;29.00;44.86
17781;BME280;8498;52.516;13.790;2023-06-22T10:46:52;101400.66;;;29.05;44.01
17781;BME280;8498;52.516;13.790;2023-06-22T10:52:15;101384.47;;;29.16;41.95
17781;BME280;8498;52.516;13.790;2023-06-22T10:57:37;101384.09;;;29.46;43.21
17781;BME280;8498;52.516;13.790;2023-06-22T11:03:01;101376.91;;;29.58;41.12
17781;BME280;8498;52.516;13.790;2023-06-22T11:08:23;101376.25;;;29.96;40.68
17781;BME280;8498;52.516;13.790;2023-06-22T11:13:46;101367.41;;;30.45;40.05
17781;BME280;8498;52.516;13.790;2023-06-22T11:19:08;101358.00;;;31.04;38.70
17781;BME280;8498;52.516;13.790;2023-06-22T11:24:31;101350.69;;;31.22;38.43
17781;BME280;8498;52.516;13.790;2023-06-22T11:29:53;101353.31;;;31.35;38.09
17781;BME280;8498;52.516;13.790;2023-06-22T11:35:16;101343.34;;;31.66;38.07
17781;BME280;8498;52.516;13.790;2023-06-22T11:40:39;101342.34;;;31.79;37.76
17781;BME280;8498;52.516;13.790;2023-06-22T11:46:02;101340.63;;;31.66;36.84
17781;BME280;8498;52.516;13.790;2023-06-22T11:51:25;101336.50;;;31.93;37.25
17781;BME280;8498;52.516;13.790;2023-06-22T11:56:47;101332.28;;;31.72;37.42
17781;BME280;8498;52.516;13.790;2023-06-22T12:02:10;101330.06;;;31.81;37.78
17781;BME280;8498;52.516;13.790;2023-06-22T12:07:32;101326.63;;;32.04;37.45
17781;BME280;8498;52.516;13.790;2023-06-22T12:12:55;101325.78;;;32.22;37.28
17781;BME280;8498;52.516;13.790;2023-06-22T12:18:20;101324.28;;;32.07;36.73
17781;BME280;8498;52.516;13.790;2023-06-22T12:23:45;101328.22;;;32.12;36.10
17781;BME280;8498;52.516;13.790;2023-06-22T12:29:08;101324.44;;;31.51;38.38
17781;BME280;8498;52.516;13.790;2023-06-22T12:34:31;101323.50;;;30.89;38.52
17781;BME280;8498;52.516;13.790;2023-06-22T12:39:54;101310.81;;;30.88;39.89
17781;BME280;8498;52.516;13.790;2023-06-22T12:45:18;101299.41;;;31.66;39.60
17781;BME280;8498;52.516;13.790;2023-06-22T12:50:42;101295.50;;;31.92;37.10
17781;BME280;8498;52.516;13.790;2023-06-22T12:56:04;101278.00;;;32.23;37.58
17781;BME280;8498;52.516;13.790;2023-06-22T13:01:28;101275.41;;;32.28;36.91
17781;BME280;8498;52.516;13.790;2023-06-22T13:06:50;101266.63;;;32.49;36.47
17781;BME280;8498;52.516;13.790;2023-06-22T13:12:13;101242.66;;;32.08;37.37
17781;BME280;8498;52.516;13.790;2023-06-22T13:17:35;101248.66;;;31.98;39.42
17781;BME280;8498;52.516;13.790;2023-06-22T13:22:58;101244.28;;;31.43;38.46
17781;BME280;8498;52.516;13.790;2023-06-22T13:28:21;101245.38;;;31.17;40.10
17781;BME280;8498;52.516;13.790;2023-06-22T13:33:49;101239.25;;;31.76;39.42
17781;BME280;8498;52.516;13.790;2023-06-22T13:39:14;101231.69;;;32.61;37.37
17781;BME280;8498;52.516;13.790;2023-06-22T13:44:36;101224.34;;;32.73;36.54
17781;BME280;8498;52.516;13.790;2023-06-22T13:49:59;101229.69;;;32.68;37.02
17781;BME280;8498;52.516;13.790;2023-06-22T13:55:22;101224.84;;;32.40;36.85
17781;BME280;8498;52.516;13.790;2023-06-22T14:00:45;101211.81;;;32.36;37.75
17781;BME280;8498;52.516;13.790;2023-06-22T14:06:08;101208.44;;;32.34;37.18
17781;BME280;8498;52.516;13.790;2023-06-22T14:11:32;101193.78;;;32.63;37.82
17781;BME280;8498;52.516;13.790;2023-06-22T14:16:54;101177.41;;;32.68;36.63
17781;BME280;8498;52.516;13.790;2023-06-22T14:22:17;101171.78;;;32.63;35.64
17781;BME280;8498;52.516;13.790;2023-06-22T14:27:39;101173.44;;;32.53;36.99
17781;BME280;8498;52.516;13.790;2023-06-22T14:33:02;101156.84;;;32.71;37.02
17781;BME280;8498;52.516;13.790;2023-06-22T14:38:24;101149.16;;;32.61;36.84
17781;BME280;8498;52.516;13.790;2023-06-22T14:43:49;101140.06;;;32.61;36.29
17781;BME280;8498;52.516;13.790;2023-06-22T14:49:12;101131.25;;;32.82;37.91
17781;BME280;8498;52.516;13.790;2023-06-22T14:54:34;101143.44;;;32.63;37.61
17781;BME280;8498;52.516;13.790;2023-06-22T14:59:57;101132.06;;;32.48;38.97
17781;BME280;8498;52.516;13.790;2023-06-22T15:05:19;101112.34;;;32.39;38.35
17781;BME280;8498;52.516;13.790;2023-06-22T15:10:42;101087.31;;;32.17;37.06
17781;BME280;8498;52.516;13.790;2023-06-22T15:16:04;101084.31;;;32.19;37.92
17781;BME280;8498;52.516;13.790;2023-06-22T15:21:27;101075.63;;;31.92;38.49
17781;BME280;8498;52.516;13.790;2023-06-22T15:26:50;101078.13;;;31.82;39.57
17781;BME280;8498;52.516;13.790;2023-06-22T15:32:13;101067.53;;;31.97;39.14
17781;BME280;8498;52.516;13.790;2023-06-22T15:37:35;101063.97;;;32.08;39.78
17781;BME280;8498;52.516;13.790;2023-06-22T15:42:57;101075.25;;;31.88;38.95
17781;BME280;8498;52.516;13.790;2023-06-22T15:48:21;101064.88;;;31.90;38.52
17781;BME280;8498;52.516;13.790;2023-06-22T15:53:43;101047.03;;;31.69;39.24
17781;BME280;8498;52.516;13.790;2023-06-22T15:59:06;101053.16;;;31.53;39.45
17781;BME280;8498;52.516;13.790;2023-06-22T16:04:28;101034.84;;;31.17;39.96
17781;BME280;8498;52.516;13.790;2023-06-22T16:09:51;101024.66;;;31.24;39.35
17781;BME280;8498;52.516;13.790;2023-06-22T16:15:13;101029.22;;;31.12;39.55
17781;BME280;8498;52.516;13.790;2023-06-22T16:20:36;101023.25;;;31.15;39.62
17781;BME280;8498;52.516;13.790;2023-06-22T16:25:58;101014.72;;;31.23;41.19
17781;BME280;8498;52.516;13.790;2023-06-22T16:31:21;101006.13;;;31.01;40.33
17781;BME280;8498;52.516;13.790;2023-06-22T16:36:44;100997.44;;;30.86;40.35
17781;BME280;8498;52.516;13.790;2023-06-22T16:42:06;100975.59;;;30.61;41.71
17781;BME280;8498;52.516;13.790;2023-06-22T16:47:29;100947.38;;;30.36;41.30
17781;BME280;8498;52.516;13.790;2023-06-22T16:52:52;100938.22;;;30.24;42.05
17781;BME280;8498;52.516;13.790;2023-06-22T16:58:14;100945.66;;;29.99;43.59
17781;BME280;8498;52.516;13.790;2023-06-22T17:03:45;100944.75;;;29.55;42.50
17781;BME280;8498;52.516;13.790;2023-06-22T17:09:11;100944.28;;;29.27;43.74
17781;BME280;8498;52.516;13.790;2023-06-22T17:14:38;100936.22;;;29.07;43.67
17781;BME280;8498;52.516;13.790;2023-06-22T17:20:01;100916.06;;;28.95;43.98
17781;BME280;8498;52.516;13.790;2023-06-22T17:25:27;100930.41;;;28.90;44.42
17781;BME280;8498;52.516;13.790;2023-06-22T17:31:08;100934.25;;;28.69;43.94
17781;BME280;8498;52.516;13.790;2023-06-22T17:36:31;100937.44;;;28.60;44.88
17781;BME280;8498;52.516;13.790;2023-06-22T17:41:54;100928.88;;;28.49;45.11
17781;BME280;8498;52.516;13.790;2023-06-22T17:47:26;100906.81;;;28.44;45.17
17781;BME280;8498;52.516;13.790;2023-06-22T17:52:53;100897.41;;;28.34;46.31
17781;BME280;8498;52.516;13.790;2023-06-22T17:58:16;100898.69;;;28.18;45.72
17781;BME280;8498;52.516;13.790;2023-06-22T18:03:38;100881.88;;;28.08;46.11
17781;BME280;8498;52.516;13.790;2023-06-22T18:09:02;100872.88;;;27.94;45.81
17781;BME280;8498;52.516;13.790;2023-06-22T18:14:27;100866.41;;;27.82;45.99
17781;BME280;8498;52.516;13.790;2023-06-22T18:19:50;100860.09;;;27.75;46.16
17781;BME280;8498;52.516;13.790;2023-06-22T18:25:12;100860.09;;;27.62;46.04
17781;BME280;8498;52.516;13.790;2023-06-22T18:30:36;100843.72;;;27.49;46.74
17781;BME280;8498;52.516;13.790;2023-06-22T18:36:00;100848.34;;;27.35;47.10
17781;BME280;8498;52.516;13.790;2023-06-22T18:41:51;100848.78;;;27.19;47.85
17781;BME280;8498;52.516;13.790;2023-06-22T18:47:28;100871.00;;;27.09;48.05
17781;BME280;8498;52.516;13.790;2023-06-22T18:53:01;100848.53;;;27.00;48.15
17781;BME280;8498;52.516;13.790;2023-06-22T18:58:25;100841.56;;;26.91;48.32
17781;BME280;8498;52.516;13.790;2023-06-22T19:03:51;100833.56;;;26.83;49.46
17781;BME280;8498;52.516;13.790;2023-06-22T19:09:18;100814.47;;;26.70;48.77
17781;BME280;8498;52.516;13.790;2023-06-22T19:14:41;100785.75;;;26.67;48.09
17781;BME280;8498;52.516;13.790;2023-06-22T19:20:04;100763.72;;;26.56;48.75
17781;BME280;8498;52.516;13.790;2023-06-22T19:25:29;100795.13;;;26.52;48.83
17781;BME280;8498;52.516;13.790;2023-06-22T19:30:59;100817.56;;;26.47;48.76
17781;BME280;8498;52.516;13.790;2023-06-22T19:36:22;100803.72;;;26.42;48.81
17781;BME280;8498;52.516;13.790;2023-06-22T19:41:45;100819.41;;;26.40;48.71
17781;BME280;8498;52.516;13.790;2023-06-22T19:47:08;100806.81;;;26.33;48.91
17781;BME280;8498;52.516;13.790;2023-06-22T19:52:41;100807.22;;;26.29;48.79
17781;BME280;8498;52.516;13.790;2023-06-22T19:58:04;100802.16;;;26.26;48.96
17781;BME280;8498;52.516;13.790;2023-06-22T20:03:29;100801.28;;;26.19;49.03
17781;BME280;8498;52.516;13.790;2023-06-22T20:08:55;100794.78;;;26.14;49.16
17781;BME280;8498;52.516;13.790;2023-06-22T20:14:20;100756.63;;;26.07;49.23
17781;BME280;8498;52.516;13.790;2023-06-22T20:19:43;100730.41;;;26.00;48.75
17781;BME280;8498;52.516;13.790;2023-06-22T20:25:07;100716.38;;;25.96;48.92
17781;BME280;8498;52.516;13.790;2023-06-22T20:30:31;100724.31;;;25.91;48.59
17781;BME280;8498;52.516;13.790;2023-06-22T20:35:54;100736.84;;;25.85;48.37
17781;BME280;8498;52.516;13.790;2023-06-22T20:41:17;100737.06;;;25.84;48.71
17781;BME280;8498;52.516;13.790;2023-06-22T20:46:39;100760.66;;;25.77;48.81
17781;BME280;8498;52.516;13.790;2023-06-22T20:52:02;100781.19;;;25.73;51.36
17781;BME280;8498;52.516;13.790;2023-06-22T20:57:29;100822.22;;;25.50;54.45
17781;BME280;8498;52.516;13.790;2023-06-22T21:02:52;100992.91;;;24.76;60.99
17781;BME280;8498;52.516;13.790;2023-06-22T21:08:14;101000.16;;;24.02;74.83
17781;BME280;8498;52.516;13.790;2023-06-22T21:13:38;100902.19;;;23.36;84.48
17781;BME280;8498;52.516;13.790;2023-06-22T21:19:00;100913.75;;;22.85;89.48
17781;BME280;8498;52.516;13.790;2023-06-22T21:24:23;100949.94;;;22.53;93.25
17781;BME280;8498;52.516;13.790;2023-06-22T21:29:45;100932.44;;;22.24;95.34
17781;BME280;8498;52.516;13.790;2023-06-22T21:35:08;100909.31;;;22.06;97.19
17781;BME280;8498;52.516;13.790;2023-06-22T21:40:36;100878.59;;;21.90;96.71
17781;BME280;8498;52.516;13.790;2023-06-22T21:45:59;100914.94;;;21.72;97.13
17781;BME280;8498;52.516;13.790;2023-06-22T21:51:21;100962.59;;;21.65;97.47
17781;BME280;8498;52.516;13.790;2023-06-22T21:56:44;100999.28;;;21.59;99.99
17781;BME280;8498;52.516;13.790;2023-06-22T22:02:06;101025.63;;;21.49;100.00
17781;BME280;8498;52.516;13.790;2023-06-22T22:07:29;101044.88;;;21.38;100.00
17781;BME280;8498;52.516;13.790;2023-06-22T22:12:52;101113.00;;;21.15;100.00
17781;BME280;8498;52.516;13.790;2023-06-22T22:18:15;101126.59;;;20.72;100.00
17781;BME280;8498;52.516;13.790;2023-06-22T22:23:37;101073.06;;;21.01;100.00
17781;BME280;8498;52.516;13.790;2023-06-22T22:29:00;101070.38;;;21.01;100.00
17781;BME280;8498;52.516;13.790;2023-06-22T22:34:22;101065.25;;;20.90;100.00
17781;BME280;8498;52.516;13.790;2023-06-22T22:39:44;101041.09;;;20.80;100.00
17781;BME280;8498;52.516;13.790;2023-06-22T22:45:09;100957.53;;;20.79;100.00
17781;BME280;8498;52.516;13.790;2023-06-22T22:50:32;100934.91;;;20.80;100.00
17781;BME280;8498;52.516;13.790;2023-06-22T22:55:55;100942.69;;;20.75;100.00
17781;BME280;8498;52.516;13.790;2023-06-22T23:01:17;100930.50;;;20.63;100.00
17781;BME280;8498;52.516;13.790;2023-06-22T23:06:40;100887.44;;;20.53;100.00
17781;BME280;8498;52.516;13.790;2023-06-22T23:12:03;100834.41;;;20.36;100.00
17781;BME280;8498;52.516;13.790;2023-06-22T23:17:26;100800.81;;;20.30;100.00
17781;BME280;8498;52.516;13.790;2023-06-22T23:22:54;100767.56;;;20.13;100.00
17781;BME280;8498;52.516;13.790;2023-06-22T23:28:19;100753.84;;;19.99;100.00
17781;BME280;8498;52.516;13.790;2023-06-22T23:33:58;100752.44;;;19.87;100.00
17781;BME280;8498;52.516;13.790;2023-06-22T23:39:26;100734.75;;;19.84;100.00
17781;BME280;8498;52.516;13.790;2023-06-22T23:44:49;100676.56;;;19.73;100.00
17781;BME280;8498;52.516;13.790;2023-06-22T23:50:13;100670.13;;;19.58;100.00
17781;BME280;8498;52.516;13.790;2023-06-22T23:55:36;100680.91;;;19.58;100.00
